Aeroporto :
LOGIN :

Iscrizione | Disclaimer

   EN    FR    IT 

 










Sommario :    VFR   VFR Marginale   IFR   IFR Intensivo   IFR Molto Intensivo
Visibilità : 
Base nubi : 
>= 8 km
>= 3000ft
5 / 8 km
1000 / 3000 ft
1500m / 5 km
500 / 1000 ft
800 / 1500m
200 / 500 ft
< 800m
< 200 ft
Simboli :   Temporali  Nebbia  Neve Forte  Precipitazioni Forti  Vento > 20 kt
SIGMETs :   Varie  Temporali  Ghiacco  Turbolenza  Onda orograficha  Ceneri Vulcaniche






- Altitudine del aeroporto : 628 ft
- Codice IATA : CMR


LFGA - Colmar-Houssen

ULTIMO METAR :
  • 092030Z AUTO 27007KT 250V310 9999 BKN036 BKN058 OVC068 06/03 Q1015

METARs OBSOLETI :
  • 092000Z AUTO VRB05KT 9999 -RA FEW027 BKN032 BKN039 06/02 Q1014
  • 091930Z AUTO VRB03KT 9999 -RA BKN029 BKN047 BKN086 06/03 Q1013
  • 091900Z AUTO 27008KT 200V330 9999 -RA FEW036 OVC140 07/03 Q1012
  • 091830Z AUTO 28010KT 250V320 9999 -RA FEW038 SCT049 BKN060 07/03 Q1012
  • 091800Z AUTO 28008KT 210V320 9999 -RA FEW031 BKN037 BKN049 07/03 Q1011

TAF N/A



MetMap, La meteo Aeronautica in un colpo d'occhio ! - Copyright ORBIFLY Dicembre 2007 - Disclaimer

ORBIFLY MET'MAP TEAM :

Programmazione e sviluppo : Alexandra Zaïnal
Concezione : Baudouin d'Aumeries
Aiuto per la programmazione : Marc-Olivier Méhu
Supporto tecnico e logistico : Manuel Goepfert
Aiuto per la traduzione : Arnaldo La Scala

Contatto : metmap@orbifly.com




FONTI E CREDITI :

   NOAA